Hope Hull, Alabama
Current Conditions -  °F | °C
As of 2:53 PM on Thursday 23 Oct 2014 (Local Time) from KMGM Reporting Station
Clear Clear  
Wind Chill: 73°   Ceiling: Unl
Heat Index: 73°   Visibility: 10mi
Dew Point: 39°   Wind: 6mph
Humidity: 29%   Direction: 270°W
Pressure: 30.05"   Gusts: NA
Location:  32.27°N, 86.36°W
Report Text: KMGM 231953Z 27005KT 10SM CLR 23/04 A3005 RMK AO2 SLP174 T02280039
Loading
Personal Weather Stations






























Interactive Weather Map
Tropical Storm Tracking
New forecast layout! Learn more

10-Day Weather Forecast

Advertisements
Track Severe Weather on mobile